createdAt,value
2023-05-03T00:00:45.766Z,14.80
2023-05-03T00:01:47.680Z,14.80
2023-05-03T00:02:49.665Z,14.80
2023-05-03T00:03:54.940Z,14.80
2023-05-03T00:04:57.638Z,14.80
2023-05-03T00:06:15.922Z,14.80
2023-05-03T00:07:18.410Z,14.80
2023-05-03T00:08:20.481Z,14.70
2023-05-03T00:09:22.363Z,14.70
2023-05-03T00:10:24.344Z,14.80
2023-05-03T00:11:26.972Z,14.70
2023-05-03T00:12:28.880Z,14.80
2023-05-03T00:13:31.032Z,14.80
2023-05-03T00:14:32.678Z,14.80
2023-05-03T00:15:34.368Z,14.80
2023-05-03T00:16:40.108Z,14.80
2023-05-03T00:17:41.892Z,14.80
2023-05-03T00:18:43.577Z,14.80
2023-05-03T00:19:45.445Z,14.80
2023-05-03T00:20:47.098Z,14.80
2023-05-03T00:21:49.086Z,14.80
2023-05-03T00:22:51.829Z,14.80
2023-05-03T00:23:53.665Z,14.80
2023-05-03T00:24:56.784Z,14.80
2023-05-03T00:25:59.240Z,14.80
2023-05-03T00:27:01.944Z,14.80
2023-05-03T00:28:03.843Z,14.70
2023-05-03T00:29:05.916Z,14.70
2023-05-03T00:30:08.377Z,14.80
2023-05-03T00:31:11.174Z,14.70
2023-05-03T00:32:13.203Z,14.70
2023-05-03T00:33:16.602Z,14.70
2023-05-03T00:34:18.422Z,14.70
2023-05-03T00:35:20.446Z,14.70
2023-05-03T00:36:22.162Z,14.70
2023-05-03T00:37:25.036Z,14.60
2023-05-03T00:38:26.802Z,14.60
2023-05-03T00:39:31.937Z,14.70
2023-05-03T00:40:33.869Z,14.70
2023-05-03T00:41:36.165Z,14.60
2023-05-03T00:42:38.427Z,14.60
2023-05-03T00:43:40.153Z,14.60
2023-05-03T00:44:42.389Z,14.60
2023-05-03T00:45:46.351Z,14.60
2023-05-03T00:46:48.454Z,14.60
2023-05-03T00:47:50.702Z,14.60
2023-05-03T00:48:52.652Z,14.60
2023-05-03T00:49:54.710Z,14.60
2023-05-03T00:50:58.650Z,14.60
2023-05-03T00:52:01.043Z,14.60
2023-05-03T00:53:03.253Z,14.60
2023-05-03T00:54:05.052Z,14.60
2023-05-03T00:55:09.005Z,14.50
2023-05-03T00:56:12.273Z,14.50
2023-05-03T00:57:14.617Z,14.50
2023-05-03T00:58:16.764Z,14.50
2023-05-03T00:59:19.456Z,14.50
2023-05-03T01:00:22.345Z,14.40
2023-05-03T01:01:24.243Z,14.40
2023-05-03T01:02:27.099Z,14.40
2023-05-03T01:03:29.658Z,14.40
2023-05-03T01:04:31.940Z,14.30
2023-05-03T01:05:51.044Z,14.30
2023-05-03T01:06:59.294Z,14.30
2023-05-03T01:08:18.930Z,14.30
2023-05-03T01:09:39.830Z,14.20
2023-05-03T01:11:13.901Z,14.20
2023-05-03T01:12:28.501Z,14.20
2023-05-03T01:13:48.693Z,14.10
2023-05-03T01:14:56.400Z,14.10
2023-05-03T01:16:12.455Z,14.00
2023-05-03T01:17:37.836Z,14.00
2023-05-03T01:18:44.211Z,14.00
2023-05-03T01:19:51.535Z,14.00
2023-05-03T01:20:53.716Z,14.00
2023-05-03T01:22:22.372Z,14.00
2023-05-03T01:23:42.134Z,13.90
2023-05-03T01:24:51.209Z,14.00
2023-05-03T01:25:54.353Z,14.00
2023-05-03T01:26:56.032Z,14.00
2023-05-03T01:27:57.718Z,14.00
2023-05-03T01:29:00.415Z,14.00
2023-05-03T01:30:05.969Z,14.00
2023-05-03T01:31:07.777Z,14.10
2023-05-03T01:32:15.781Z,14.00
2023-05-03T01:33:33.524Z,14.10
2023-05-03T01:35:07.293Z,14.10
2023-05-03T01:36:16.327Z,14.00
2023-05-03T01:37:18.805Z,14.00
2023-05-03T01:38:22.165Z,14.00
2023-05-03T01:39:30.188Z,14.00
2023-05-03T01:40:38.703Z,13.90
2023-05-03T01:41:43.001Z,13.90
2023-05-03T01:42:44.763Z,13.90
2023-05-03T01:43:47.286Z,13.80
2023-05-03T01:44:50.771Z,13.90
2023-05-03T01:45:52.670Z,13.90
2023-05-03T01:46:54.698Z,13.90
2023-05-03T01:47:57.402Z,13.90
2023-05-03T01:48:59.223Z,13.90
2023-05-03T01:50:01.156Z,13.90
2023-05-03T01:51:03.474Z,14.00
2023-05-03T01:52:05.342Z,14.00
2023-05-03T01:53:07.047Z,14.00
2023-05-03T01:54:08.778Z,14.00
2023-05-03T01:55:10.500Z,14.00
2023-05-03T01:56:12.217Z,13.90
2023-05-03T01:57:14.224Z,13.90
2023-05-03T01:58:16.234Z,13.90
2023-05-03T01:59:17.941Z,13.90
2023-05-03T02:00:19.783Z,13.90
2023-05-03T02:01:21.658Z,13.80
2023-05-03T02:02:23.538Z,13.70
2023-05-03T02:03:25.373Z,13.70
2023-05-03T02:04:27.425Z,13.80
2023-05-03T02:05:29.329Z,13.80
2023-05-03T02:06:31.873Z,13.80
2023-05-03T02:07:33.640Z,13.80
2023-05-03T02:08:35.612Z,13.80
2023-05-03T02:09:37.348Z,13.70
2023-05-03T02:10:38.983Z,13.80
2023-05-03T02:11:40.729Z,13.70
2023-05-03T02:12:43.199Z,13.70
2023-05-03T02:13:45.696Z,13.70
2023-05-03T02:14:47.576Z,13.60
2023-05-03T02:15:49.383Z,13.60
2023-05-03T02:16:55.630Z,13.60
2023-05-03T02:17:58.708Z,13.60
2023-05-03T02:19:00.949Z,13.60
2023-05-03T02:20:04.110Z,13.60
2023-05-03T02:21:06.858Z,13.60
2023-05-03T02:22:08.546Z,13.60
2023-05-03T02:23:10.246Z,13.60
2023-05-03T02:24:12.196Z,13.60
2023-05-03T02:25:14.028Z,13.60
2023-05-03T02:26:15.783Z,13.60
2023-05-03T02:27:17.450Z,13.60
2023-05-03T02:28:19.186Z,13.70
2023-05-03T02:29:21.044Z,13.70
2023-05-03T02:30:22.759Z,13.70
2023-05-03T02:31:25.367Z,13.60
2023-05-03T02:32:27.500Z,13.70
2023-05-03T02:33:29.175Z,13.80
2023-05-03T02:34:31.181Z,13.60
2023-05-03T02:35:33.116Z,13.70
2023-05-03T02:36:34.842Z,13.60
2023-05-03T02:37:36.918Z,13.60
2023-05-03T02:38:38.606Z,13.70
2023-05-03T02:39:40.249Z,13.70
2023-05-03T02:40:41.934Z,13.60
2023-05-03T02:41:43.853Z,13.60
2023-05-03T02:42:45.822Z,13.60
2023-05-03T02:43:47.511Z,13.60
2023-05-03T02:44:49.514Z,13.60
2023-05-03T02:45:51.618Z,13.60
2023-05-03T02:46:55.035Z,13.60
2023-05-03T02:47:57.024Z,13.60
2023-05-03T02:48:58.748Z,13.60
2023-05-03T02:50:00.813Z,13.60
2023-05-03T02:51:03.455Z,13.60
2023-05-03T02:52:05.205Z,13.60
2023-05-03T02:53:07.306Z,13.60
2023-05-03T02:54:09.056Z,13.60
2023-05-03T02:55:11.085Z,13.60
2023-05-03T02:56:12.885Z,13.60
2023-05-03T02:57:14.607Z,13.60
2023-05-03T02:58:16.483Z,13.60
2023-05-03T02:59:18.569Z,13.60
2023-05-03T03:00:20.687Z,13.60
2023-05-03T03:01:22.564Z,13.60
2023-05-03T03:02:24.588Z,13.60
2023-05-03T03:03:26.473Z,13.60
2023-05-03T03:04:28.434Z,13.70
2023-05-03T03:05:30.207Z,13.60
2023-05-03T03:06:32.105Z,13.60
2023-05-03T03:07:34.151Z,13.60
2023-05-03T03:08:38.954Z,13.60
2023-05-03T03:09:40.749Z,13.60
2023-05-03T03:10:42.515Z,13.50
2023-05-03T03:11:44.341Z,13.50
2023-05-03T03:12:46.167Z,13.40
2023-05-03T03:13:47.918Z,13.50
2023-05-03T03:14:49.607Z,13.50
2023-05-03T03:15:51.468Z,13.40
2023-05-03T03:16:54.307Z,13.40
2023-05-03T03:17:58.230Z,13.40
2023-05-03T03:19:00.028Z,13.30
2023-05-03T03:20:06.162Z,13.30
2023-05-03T03:21:08.446Z,13.30
2023-05-03T03:22:10.312Z,13.30
2023-05-03T03:23:12.100Z,13.20
2023-05-03T03:24:14.199Z,13.20
2023-05-03T03:25:16.501Z,13.20
2023-05-03T03:26:18.936Z,13.20
2023-05-03T03:27:23.126Z,13.20
2023-05-03T03:28:24.799Z,13.10
2023-05-03T03:29:27.918Z,13.10
2023-05-03T03:30:30.557Z,13.20
2023-05-03T03:31:32.328Z,13.20
2023-05-03T03:32:34.216Z,13.10
2023-05-03T03:33:35.949Z,13.10
2023-05-03T03:34:37.613Z,13.10
2023-05-03T03:35:39.925Z,13.10
2023-05-03T03:36:41.545Z,13.10
2023-05-03T03:37:43.404Z,13.10
2023-05-03T03:38:45.254Z,13.10
2023-05-03T03:39:46.931Z,13.10
2023-05-03T03:40:48.668Z,13.10
2023-05-03T03:41:50.509Z,13.10
2023-05-03T03:42:52.201Z,13.00
2023-05-03T03:43:53.926Z,13.00
2023-05-03T03:44:55.660Z,13.00
2023-05-03T03:45:57.354Z,13.00
2023-05-03T03:46:59.116Z,13.00
2023-05-03T03:48:01.017Z,13.00
2023-05-03T03:49:02.953Z,13.00
2023-05-03T03:50:05.317Z,13.00
2023-05-03T03:51:07.293Z,13.00
2023-05-03T03:52:09.049Z,12.90
2023-05-03T03:53:11.706Z,12.90
2023-05-03T03:54:14.168Z,12.90
2023-05-03T03:55:16.029Z,12.90
2023-05-03T03:56:18.146Z,12.90
2023-05-03T03:57:20.033Z,12.90
2023-05-03T03:58:21.734Z,12.90
2023-05-03T03:59:23.458Z,12.90
2023-05-03T04:00:25.184Z,12.90
2023-05-03T04:01:27.234Z,12.80
2023-05-03T04:02:29.162Z,12.80
2023-05-03T04:03:31.061Z,12.80
2023-05-03T04:04:33.089Z,12.80
2023-05-03T04:05:35.238Z,12.80
2023-05-03T04:06:37.286Z,12.80
2023-05-03T04:07:39.150Z,12.80
2023-05-03T04:08:42.212Z,12.70
2023-05-03T04:09:44.724Z,12.70
2023-05-03T04:10:46.566Z,12.80
2023-05-03T04:11:48.564Z,12.70
2023-05-03T04:12:50.644Z,12.70
2023-05-03T04:13:52.905Z,12.70
2023-05-03T04:14:54.995Z,12.70
2023-05-03T04:15:57.316Z,12.70
2023-05-03T04:17:00.241Z,12.70
2023-05-03T04:18:02.453Z,12.70
2023-05-03T04:19:04.577Z,12.60
2023-05-03T04:20:11.022Z,12.60
2023-05-03T04:21:12.771Z,12.60
2023-05-03T04:22:14.476Z,12.60
2023-05-03T04:23:16.239Z,12.70
2023-05-03T04:24:18.224Z,12.70
2023-05-03T04:25:20.006Z,12.70
2023-05-03T04:26:31.683Z,12.70
2023-05-03T04:27:34.468Z,12.70
2023-05-03T04:28:36.849Z,12.70
2023-05-03T04:29:38.947Z,12.70
2023-05-03T04:30:41.937Z,12.70
2023-05-03T04:31:44.033Z,12.70
2023-05-03T04:32:47.840Z,12.60
2023-05-03T04:33:49.962Z,12.60
2023-05-03T04:34:53.967Z,12.60
2023-05-03T04:35:56.313Z,12.60
2023-05-03T04:36:58.117Z,12.60
2023-05-03T04:37:59.900Z,12.60
2023-05-03T04:39:01.864Z,12.60
2023-05-03T04:40:12.547Z,12.60
2023-05-03T04:41:16.053Z,12.60
2023-05-03T04:42:18.317Z,12.60
2023-05-03T04:43:20.538Z,12.60
2023-05-03T04:44:22.397Z,12.60
2023-05-03T04:45:24.662Z,12.60
2023-05-03T04:46:26.594Z,12.60
2023-05-03T04:47:28.347Z,12.60
2023-05-03T04:48:30.631Z,12.60
2023-05-03T04:49:33.091Z,12.70
2023-05-03T04:50:34.896Z,12.70
2023-05-03T04:51:36.605Z,12.70
2023-05-03T04:52:38.707Z,12.80
2023-05-03T04:53:40.606Z,12.80
2023-05-03T04:54:42.310Z,12.80
2023-05-03T04:55:43.981Z,12.80
2023-05-03T04:56:46.727Z,12.90
2023-05-03T04:57:48.746Z,12.90
2023-05-03T04:58:50.717Z,12.90
2023-05-03T04:59:54.107Z,12.90
2023-05-03T05:00:55.816Z,12.90
2023-05-03T05:01:57.681Z,12.90
2023-05-03T05:02:59.498Z,13.00
2023-05-03T05:04:01.996Z,13.00
2023-05-03T05:05:03.945Z,12.90
2023-05-03T05:06:08.207Z,12.90
2023-05-03T05:07:10.116Z,12.90
2023-05-03T05:08:12.045Z,12.90
2023-05-03T05:09:28.658Z,12.90
2023-05-03T05:10:30.484Z,12.90
2023-05-03T05:11:32.167Z,12.90
2023-05-03T05:12:34.083Z,12.90
2023-05-03T05:13:36.425Z,12.90
2023-05-03T05:14:38.159Z,12.90
2023-05-03T05:15:40.490Z,12.90
2023-05-03T05:16:42.628Z,12.90
2023-05-03T05:17:44.926Z,12.80
2023-05-03T05:18:46.951Z,12.90
2023-05-03T05:19:50.281Z,12.90
2023-05-03T05:20:51.930Z,12.90
2023-05-03T05:21:53.794Z,12.90
2023-05-03T05:22:55.838Z,12.90
2023-05-03T05:23:57.504Z,13.00
2023-05-03T05:24:59.173Z,13.00
2023-05-03T05:26:01.322Z,13.00
2023-05-03T05:27:03.224Z,13.10
2023-05-03T05:28:06.361Z,13.10
2023-05-03T05:29:08.078Z,13.10
2023-05-03T05:30:09.921Z,13.10
2023-05-03T05:31:11.613Z,13.20
2023-05-03T05:32:14.050Z,13.20
2023-05-03T05:33:17.445Z,13.30
2023-05-03T05:34:20.719Z,13.30
2023-05-03T05:35:22.382Z,13.40
2023-05-03T05:36:24.120Z,13.40
2023-05-03T05:37:26.432Z,13.40
2023-05-03T05:38:28.073Z,13.50
2023-05-03T05:39:29.754Z,13.50
2023-05-03T05:40:31.442Z,13.60
2023-05-03T05:41:33.132Z,13.70
2023-05-03T05:42:34.816Z,13.70
2023-05-03T05:43:36.914Z,13.80
2023-05-03T05:44:38.837Z,13.80
2023-05-03T05:45:40.956Z,13.90
2023-05-03T05:46:42.995Z,13.90
2023-05-03T05:47:46.382Z,14.00
2023-05-03T05:48:48.444Z,14.00
2023-05-03T05:49:50.283Z,14.10
2023-05-03T05:50:52.670Z,14.20
2023-05-03T05:51:54.402Z,14.20
2023-05-03T05:52:56.221Z,14.30
2023-05-03T05:53:59.129Z,14.40
2023-05-03T05:55:01.428Z,14.40
2023-05-03T05:56:03.575Z,14.40
2023-05-03T05:57:05.624Z,14.50
2023-05-03T05:58:09.753Z,14.50
2023-05-03T05:59:11.730Z,14.60
2023-05-03T06:00:17.522Z,14.60
2023-05-03T06:01:19.236Z,14.60
2023-05-03T06:02:24.852Z,14.60
2023-05-03T06:03:27.402Z,14.60
2023-05-03T06:04:29.668Z,14.60
2023-05-03T06:05:32.992Z,14.50
2023-05-03T06:06:34.811Z,14.40
2023-05-03T06:07:37.396Z,14.50
2023-05-03T06:08:39.159Z,14.40
2023-05-03T06:09:40.944Z,14.50
2023-05-03T06:10:42.730Z,14.50
2023-05-03T06:11:44.537Z,14.50
2023-05-03T06:12:46.300Z,14.50
2023-05-03T06:13:48.045Z,14.50
2023-05-03T06:15:01.488Z,14.60
2023-05-03T06:16:06.032Z,14.60
2023-05-03T06:17:07.849Z,14.60
2023-05-03T06:18:11.096Z,14.60
2023-05-03T06:19:12.941Z,14.60
2023-05-03T06:20:15.104Z,14.60
2023-05-03T06:21:17.089Z,14.60
2023-05-03T06:22:19.090Z,14.60
2023-05-03T06:23:20.923Z,14.60
2023-05-03T06:24:22.730Z,14.60
2023-05-03T06:25:24.550Z,14.60
2023-05-03T06:26:26.450Z,14.60
2023-05-03T06:27:28.454Z,14.60
2023-05-03T06:28:30.210Z,14.60
2023-05-03T06:29:32.342Z,14.60
2023-05-03T06:30:34.856Z,14.60
2023-05-03T06:31:36.869Z,14.60
2023-05-03T06:32:40.495Z,14.60
2023-05-03T06:33:42.265Z,14.60
2023-05-03T06:34:43.966Z,14.60
2023-05-03T06:35:47.243Z,14.60
2023-05-03T06:36:51.860Z,14.60
2023-05-03T06:37:54.371Z,14.60
2023-05-03T06:38:56.252Z,14.60
2023-05-03T06:39:59.438Z,14.60
2023-05-03T06:41:01.293Z,14.60
2023-05-03T06:42:03.526Z,14.60
2023-05-03T06:43:05.848Z,14.60
2023-05-03T06:44:07.941Z,14.70
2023-05-03T06:45:10.153Z,14.70
2023-05-03T06:46:13.187Z,14.70
2023-05-03T06:47:14.991Z,14.80
2023-05-03T06:48:17.278Z,14.80
2023-05-03T06:49:19.212Z,14.80
2023-05-03T06:50:22.684Z,14.80
2023-05-03T06:51:28.490Z,14.80
2023-05-03T06:52:31.318Z,14.80
2023-05-03T06:53:33.052Z,14.90
2023-05-03T06:54:34.834Z,14.90
2023-05-03T06:55:36.908Z,14.90
2023-05-03T06:56:39.137Z,14.90
2023-05-03T06:57:46.364Z,15.00
2023-05-03T06:58:48.430Z,15.00
2023-05-03T06:59:50.979Z,15.00
2023-05-03T07:00:54.091Z,15.00
2023-05-03T07:01:56.005Z,15.00
2023-05-03T07:02:59.309Z,15.00
2023-05-03T07:04:01.508Z,15.00
2023-05-03T07:05:03.770Z,15.00
2023-05-03T07:06:06.346Z,15.10
2023-05-03T07:07:08.369Z,15.00
2023-05-03T07:08:10.220Z,15.00
2023-05-03T07:09:12.120Z,15.10
2023-05-03T07:10:13.943Z,15.10
2023-05-03T07:11:15.789Z,15.10
2023-05-03T07:12:18.674Z,15.20
2023-05-03T07:13:20.451Z,15.20
2023-05-03T07:14:23.616Z,15.20
2023-05-03T07:15:27.030Z,15.20
2023-05-03T07:16:31.861Z,15.20
2023-05-03T07:17:35.019Z,15.20
2023-05-03T07:18:36.772Z,15.20
2023-05-03T07:19:39.614Z,15.20
2023-05-03T07:20:41.523Z,15.20
2023-05-03T07:21:43.568Z,15.20
2023-05-03T07:22:45.756Z,15.20
2023-05-03T07:23:47.448Z,15.20
2023-05-03T07:24:49.154Z,15.20
2023-05-03T07:25:51.978Z,15.20
2023-05-03T07:26:54.456Z,15.20
2023-05-03T07:27:56.569Z,15.20
2023-05-03T07:28:58.674Z,15.20
2023-05-03T07:30:00.672Z,15.20
2023-05-03T07:31:04.372Z,15.30
2023-05-03T07:32:06.495Z,15.30
2023-05-03T07:33:09.401Z,15.30
2023-05-03T07:34:12.601Z,15.30
2023-05-03T07:35:15.653Z,15.30
2023-05-03T07:36:19.113Z,15.30
2023-05-03T07:37:21.570Z,15.30
2023-05-03T07:38:24.404Z,15.30
2023-05-03T07:39:27.322Z,15.30
2023-05-03T07:40:32.761Z,15.30
2023-05-03T07:41:34.634Z,15.40
2023-05-03T07:42:44.452Z,15.40
2023-05-03T07:43:49.690Z,15.40
2023-05-03T07:44:52.387Z,15.40
2023-05-03T07:45:54.465Z,15.40
2023-05-03T07:46:56.796Z,15.40
2023-05-03T07:47:58.768Z,15.40
2023-05-03T07:49:01.784Z,15.40
2023-05-03T07:50:05.636Z,15.40
2023-05-03T07:51:09.090Z,15.40
2023-05-03T07:52:11.033Z,15.50
2023-05-03T07:53:13.935Z,15.50
2023-05-03T07:54:15.789Z,15.50
2023-05-03T07:55:21.544Z,15.60
2023-05-03T07:56:23.992Z,15.60
2023-05-03T07:57:25.695Z,15.60
2023-05-03T07:58:38.817Z,15.70
2023-05-03T07:59:42.534Z,15.70
2023-05-03T08:00:44.400Z,15.80
2023-05-03T08:01:46.507Z,15.80
2023-05-03T08:02:48.371Z,15.80
2023-05-03T08:03:53.491Z,15.80
2023-05-03T08:04:55.820Z,15.90
2023-05-03T08:05:58.552Z,15.90
2023-05-03T08:07:04.320Z,16.00
2023-05-03T08:08:06.792Z,16.00
2023-05-03T08:09:08.958Z,16.10
2023-05-03T08:10:11.446Z,16.10
2023-05-03T08:11:13.939Z,16.10
2023-05-03T08:12:15.993Z,16.10
2023-05-03T08:13:17.845Z,16.10
2023-05-03T08:14:19.656Z,16.10
2023-05-03T08:15:21.511Z,16.10
2023-05-03T08:16:23.451Z,16.20
2023-05-03T08:17:25.366Z,16.20
2023-05-03T08:18:27.664Z,16.20
2023-05-03T08:19:29.484Z,16.30
2023-05-03T08:20:31.362Z,16.30
2023-05-03T08:21:33.711Z,16.30
2023-05-03T08:22:37.759Z,16.30
2023-05-03T08:23:40.114Z,16.30
2023-05-03T08:24:42.466Z,16.40
2023-05-03T08:25:45.674Z,16.40
2023-05-03T08:26:48.748Z,16.40
2023-05-03T08:27:50.662Z,16.40
2023-05-03T08:28:52.534Z,16.50
2023-05-03T08:29:54.461Z,16.50
2023-05-03T08:30:56.991Z,16.50
2023-05-03T08:31:59.257Z,16.60
2023-05-03T08:33:01.103Z,16.60
2023-05-03T08:34:04.085Z,16.70
2023-05-03T08:35:07.688Z,16.70
2023-05-03T08:36:09.606Z,16.70
2023-05-03T08:37:11.304Z,16.70
2023-05-03T08:38:14.038Z,16.70
2023-05-03T08:39:16.088Z,16.80
2023-05-03T08:40:22.575Z,16.80
2023-05-03T08:41:31.312Z,16.80
2023-05-03T08:42:34.055Z,16.90
2023-05-03T08:43:39.951Z,17.00
2023-05-03T08:44:48.224Z,17.00
2023-05-03T08:45:50.279Z,17.10
2023-05-03T08:46:52.243Z,17.10
2023-05-03T08:47:55.471Z,17.10
2023-05-03T08:49:01.259Z,17.20
2023-05-03T08:50:05.666Z,17.20
2023-05-03T08:51:10.083Z,17.20
2023-05-03T08:52:14.714Z,17.20
2023-05-03T08:53:16.488Z,17.20
2023-05-03T08:54:23.144Z,17.20
2023-05-03T08:55:25.022Z,17.30
2023-05-03T08:56:33.610Z,17.30
2023-05-03T08:57:36.233Z,17.20
2023-05-03T08:58:38.303Z,17.20
2023-05-03T09:00:01.986Z,17.20
2023-05-03T09:01:08.900Z,17.30
2023-05-03T09:02:12.719Z,17.30
2023-05-03T09:03:14.621Z,17.40
2023-05-03T09:04:17.442Z,17.40
2023-05-03T09:05:19.253Z,17.50
2023-05-03T09:06:22.826Z,17.50
2023-05-03T09:07:24.715Z,17.50
2023-05-03T09:08:27.539Z,17.50
2023-05-03T09:09:32.793Z,17.60
2023-05-03T09:10:39.317Z,17.40
2023-05-03T09:11:41.149Z,17.60
2023-05-03T09:12:45.636Z,17.60
2023-05-03T09:13:47.463Z,17.70
2023-05-03T09:14:50.471Z,17.70
2023-05-03T09:15:57.202Z,17.70
2023-05-03T09:17:15.654Z,17.70
2023-05-03T09:18:21.665Z,17.70
2023-05-03T09:19:24.351Z,17.70
2023-05-03T09:20:37.143Z,17.60
2023-05-03T09:21:40.721Z,17.60
2023-05-03T09:22:54.638Z,17.60
2023-05-03T09:23:56.514Z,17.60
2023-05-03T09:25:00.993Z,17.70
2023-05-03T09:26:02.847Z,17.70
2023-05-03T09:27:18.796Z,17.70
2023-05-03T09:28:21.809Z,17.70
2023-05-03T09:29:33.050Z,17.70
2023-05-03T09:30:34.924Z,17.70
2023-05-03T09:31:38.069Z,17.70
2023-05-03T09:32:48.480Z,17.70
2023-05-03T09:33:50.474Z,17.80
2023-05-03T09:35:05.243Z,17.80
2023-05-03T09:36:07.879Z,17.80
2023-05-03T09:37:10.270Z,17.80
2023-05-03T09:38:29.843Z,17.80
2023-05-03T09:39:31.721Z,17.80
2023-05-03T09:40:33.800Z,17.80
2023-05-03T09:41:35.689Z,17.80
2023-05-03T09:42:38.467Z,17.70
2023-05-03T09:43:51.614Z,17.80
2023-05-03T09:44:54.038Z,17.90
2023-05-03T09:46:14.547Z,17.90
2023-05-03T09:47:16.704Z,18.00
2023-05-03T09:48:23.111Z,18.00
2023-05-03T09:49:24.932Z,18.00
2023-05-03T09:50:27.340Z,18.10
2023-05-03T09:51:29.615Z,18.00
2023-05-03T09:52:32.379Z,18.10
2023-05-03T09:53:36.089Z,18.10
2023-05-03T09:54:38.976Z,18.10
2023-05-03T09:55:41.399Z,18.10
2023-05-03T09:56:44.871Z,18.10
2023-05-03T09:57:48.266Z,18.20
2023-05-03T09:58:50.269Z,18.30
2023-05-03T09:59:52.146Z,18.30
2023-05-03T10:00:54.879Z,18.40
2023-05-03T10:02:01.743Z,18.40
2023-05-03T10:03:11.394Z,18.50
2023-05-03T10:04:15.602Z,18.50
2023-05-03T10:05:21.319Z,18.60
2023-05-03T10:06:32.103Z,18.60
2023-05-03T10:07:35.955Z,18.50
2023-05-03T10:08:42.718Z,18.60
2023-05-03T10:09:47.343Z,18.60
2023-05-03T10:10:54.303Z,18.60
2023-05-03T10:11:59.628Z,18.60
2023-05-03T10:13:03.575Z,18.70
2023-05-03T10:14:07.346Z,18.70
2023-05-03T10:15:12.855Z,18.80
2023-05-03T10:16:20.863Z,18.90
2023-05-03T10:17:43.586Z,18.90
2023-05-03T10:18:59.326Z,18.90
2023-05-03T10:20:10.546Z,18.90
2023-05-03T10:21:18.830Z,18.90
2023-05-03T10:22:20.696Z,18.90
2023-05-03T10:23:22.433Z,18.90
2023-05-03T10:24:24.248Z,18.90
2023-05-03T10:25:26.342Z,19.00
2023-05-03T10:26:28.013Z,19.00
2023-05-03T10:27:44.985Z,19.00
2023-05-03T10:28:46.749Z,19.10
2023-05-03T10:29:51.293Z,19.10
2023-05-03T10:30:53.023Z,19.10
2023-05-03T10:31:54.786Z,19.10
2023-05-03T10:32:57.036Z,19.10
2023-05-03T10:33:58.760Z,19.10
2023-05-03T10:35:03.540Z,19.10
2023-05-03T10:36:07.438Z,19.10
2023-05-03T10:37:11.522Z,19.10
2023-05-03T10:38:17.729Z,19.00
2023-05-03T10:39:21.160Z,19.00
2023-05-03T10:40:23.279Z,19.00
2023-05-03T10:41:26.365Z,19.10
2023-05-03T10:42:28.092Z,19.10
2023-05-03T10:43:32.849Z,19.10
2023-05-03T10:44:50.084Z,19.10
2023-05-03T10:45:51.872Z,19.20
2023-05-03T10:46:54.386Z,19.10
2023-05-03T10:48:11.641Z,19.10
2023-05-03T10:49:24.193Z,19.10
2023-05-03T10:50:26.570Z,19.10
2023-05-03T10:51:33.992Z,19.10
2023-05-03T10:52:35.894Z,19.10
2023-05-03T10:53:41.162Z,19.10
2023-05-03T10:54:43.317Z,19.20
2023-05-03T10:56:11.363Z,19.20
2023-05-03T10:57:13.351Z,19.30
2023-05-03T10:58:16.980Z,19.40
2023-05-03T10:59:18.890Z,19.50
2023-05-03T11:00:28.848Z,19.50
2023-05-03T11:01:32.062Z,19.50
2023-05-03T11:02:37.887Z,19.50
2023-05-03T11:03:54.402Z,19.50
2023-05-03T11:04:58.471Z,19.50
2023-05-03T11:06:00.194Z,19.50
2023-05-03T11:07:02.155Z,19.50
2023-05-03T11:08:21.246Z,19.50
2023-05-03T11:09:32.173Z,19.50
2023-05-03T11:10:33.972Z,19.50
2023-05-03T11:11:39.132Z,19.50
2023-05-03T11:12:40.827Z,19.50
2023-05-03T11:13:42.555Z,19.40
2023-05-03T11:14:53.003Z,19.40
2023-05-03T11:15:58.022Z,19.40
2023-05-03T11:16:59.963Z,19.40
2023-05-03T11:18:02.320Z,19.40
2023-05-03T11:19:04.195Z,19.40
2023-05-03T11:20:09.950Z,19.40
2023-05-03T11:21:12.666Z,19.40
2023-05-03T11:22:14.760Z,19.40
2023-05-03T11:23:16.888Z,19.50
2023-05-03T11:24:18.570Z,19.50
2023-05-03T11:25:20.399Z,19.60
2023-05-03T11:26:26.283Z,19.60
2023-05-03T11:27:28.715Z,19.70
2023-05-03T11:28:30.469Z,19.80
2023-05-03T11:29:32.666Z,19.80
2023-05-03T11:30:35.561Z,19.80
2023-05-03T11:31:37.679Z,19.80
2023-05-03T11:32:40.492Z,19.80
2023-05-03T11:33:42.546Z,19.80
2023-05-03T11:34:45.305Z,19.90
2023-05-03T11:35:47.332Z,19.80
2023-05-03T11:36:49.542Z,19.80
2023-05-03T11:37:51.433Z,19.90
2023-05-03T11:38:53.293Z,19.90
2023-05-03T11:39:55.099Z,19.90
2023-05-03T11:40:56.906Z,19.90
2023-05-03T11:42:06.188Z,20.00
2023-05-03T11:43:07.970Z,20.00
2023-05-03T11:44:16.932Z,20.00
2023-05-03T11:45:29.124Z,20.00
2023-05-03T11:46:34.879Z,19.90
2023-05-03T11:47:37.275Z,20.00
2023-05-03T11:48:39.373Z,20.00
2023-05-03T11:49:41.296Z,20.00
2023-05-03T11:50:55.613Z,20.10
2023-05-03T11:51:57.593Z,20.20
2023-05-03T11:52:59.881Z,20.30
2023-05-03T11:54:17.065Z,20.30
2023-05-03T11:55:26.417Z,20.30
2023-05-03T11:56:28.100Z,20.30
2023-05-03T11:57:31.705Z,20.30
2023-05-03T11:58:33.459Z,20.30
2023-05-03T11:59:39.825Z,20.40
2023-05-03T12:00:49.211Z,20.40
2023-05-03T12:01:53.639Z,20.40
2023-05-03T12:02:59.697Z,20.40
2023-05-03T12:04:04.158Z,20.40
2023-05-03T12:05:08.381Z,20.40
2023-05-03T12:07:14.982Z,20.50
2023-05-03T12:08:22.181Z,20.60
2023-05-03T12:09:27.308Z,20.70
2023-05-03T12:10:35.545Z,20.80
2023-05-03T12:11:44.060Z,20.90
2023-05-03T12:12:54.314Z,20.90
2023-05-03T12:14:02.849Z,21.00
2023-05-03T12:15:08.132Z,21.00
2023-05-03T12:16:14.192Z,21.10
2023-05-03T12:17:37.893Z,21.10
2023-05-03T12:18:55.965Z,21.10
2023-05-03T12:22:31.578Z,21.30
2023-05-03T12:23:34.502Z,21.30
2023-05-03T12:24:38.974Z,21.30
2023-05-03T12:25:44.415Z,21.50
2023-05-03T12:26:47.958Z,21.50
2023-05-03T12:28:07.317Z,21.60
2023-05-03T12:29:14.639Z,21.70
2023-05-03T12:30:17.792Z,21.70
2023-05-03T12:31:22.678Z,21.80
2023-05-03T12:32:25.140Z,21.90
2023-05-03T12:33:28.497Z,21.90
2023-05-03T12:34:34.923Z,22.00
2023-05-03T12:35:40.636Z,22.00
2023-05-03T12:36:43.913Z,22.10
2023-05-03T12:37:49.247Z,22.10
2023-05-03T12:38:55.836Z,22.20
2023-05-03T12:40:11.852Z,22.30
2023-05-03T12:41:52.197Z,22.40
2023-05-03T12:42:43.336Z,22.40
2023-05-03T12:43:45.991Z,22.40
2023-05-03T12:44:48.357Z,22.40
2023-05-03T12:45:59.936Z,22.40
2023-05-03T12:47:12.117Z,22.30
2023-05-03T12:48:18.043Z,22.20
2023-05-03T12:50:24.807Z,22.00
2023-05-03T12:51:29.951Z,21.90
2023-05-03T12:52:37.822Z,21.80
2023-05-03T12:53:40.754Z,21.70
2023-05-03T12:54:42.636Z,21.70
2023-05-03T12:55:45.110Z,21.70
2023-05-03T12:56:54.852Z,21.90
2023-05-03T12:58:22.684Z,21.80
2023-05-03T12:59:40.252Z,22.00
2023-05-03T13:00:49.013Z,22.10
2023-05-03T13:05:33.101Z,22.60
2023-05-03T13:06:42.236Z,22.70
2023-05-03T13:07:46.351Z,22.90
2023-05-03T13:08:50.675Z,23.00
2023-05-03T13:10:57.514Z,23.20
2023-05-03T13:11:59.686Z,23.30
2023-05-03T13:13:01.732Z,23.30
2023-05-03T13:14:03.849Z,23.40
2023-05-03T13:15:06.626Z,23.50
2023-05-03T13:16:09.550Z,23.70
2023-05-03T13:17:11.981Z,23.80
2023-05-03T13:18:14.975Z,23.80
2023-05-03T13:19:16.891Z,23.90
2023-05-03T13:20:20.315Z,24.10
2023-05-03T13:21:22.482Z,24.10
2023-05-03T13:22:24.356Z,24.10
2023-05-03T13:23:26.211Z,24.00
2023-05-03T13:24:27.934Z,23.90
2023-05-03T13:25:29.746Z,23.80
2023-05-03T13:26:32.486Z,23.70
2023-05-03T13:27:34.273Z,23.50
2023-05-03T13:28:36.134Z,23.40
2023-05-03T13:29:38.962Z,23.20
2023-05-03T13:30:40.733Z,23.00
2023-05-03T13:31:42.497Z,22.90
2023-05-03T13:32:44.269Z,22.70
2023-05-03T13:33:46.172Z,22.60
2023-05-03T13:34:47.917Z,22.50
2023-05-03T13:35:49.596Z,22.30
2023-05-03T13:36:51.276Z,22.20
2023-05-03T13:37:53.369Z,22.10
2023-05-03T13:38:55.580Z,22.30
2023-05-03T13:39:57.597Z,22.40
2023-05-03T13:40:59.438Z,22.40
2023-05-03T13:42:01.386Z,22.60
2023-05-03T13:43:03.118Z,22.80
2023-05-03T13:44:05.030Z,22.90
2023-05-03T13:45:07.642Z,23.00
2023-05-03T13:46:10.787Z,23.00
2023-05-03T13:47:12.450Z,23.00
2023-05-03T13:48:17.904Z,23.20
2023-05-03T13:49:20.944Z,23.20
2023-05-03T13:50:22.777Z,23.30
2023-05-03T13:51:25.664Z,23.50
2023-05-03T13:52:27.328Z,23.60